Time;durP1;ratioP1;P1;durP2;ratioP2;P2;SDS_P1;SDS_P2;PMS_P1;PMS_P2;Temp;Humidity;BMP_temperature;BMP_pressure;BME280_temperature;BME280_humidity;BME280_pressure;Samples;Min_cycle;Max_cycle;Signal;HPM_P1;HPM_P2
2022/01/20 00:03:43;;;;;;;5.78;2.22;;;9.90;82.40;;;;;;5071287;28;20072;-60
2022/01/20 00:28:11;;;;;;;4.32;1.90;;;9.90;82.40;;;;;;5071200;28;20489;-59
2022/01/20 00:35:27;;;;;;;2.42;1.60;;;9.90;82.50;;;;;;5071459;28;20109;-60
2022/01/20 00:37:53;;;;;;;1.80;1.63;;;9.90;82.50;;;;;;5052673;28;20058;-59
2022/01/20 00:40:19;;;;;;;2.30;1.48;;;9.90;82.50;;;;;;5071246;28;20040;-60
2022/01/20 00:42:45;;;;;;;2.67;1.45;;;9.90;82.40;;;;;;5070983;28;20049;-59
2022/01/20 00:45:11;;;;;;;2.50;1.73;;;9.90;82.50;;;;;;5071708;28;20101;-60
2022/01/20 00:47:39;;;;;;;3.40;1.75;;;9.90;82.50;;;;;;5070873;28;20055;-59
2022/01/20 00:50:08;;;;;;;2.58;1.75;;;9.90;82.50;;;;;;5070578;28;20063;-60
2022/01/20 00:52:33;;;;;;;1.95;1.52;;;9.90;82.40;;;;;;5070822;28;20045;-59
2022/01/20 00:54:59;;;;;;;2.13;1.58;;;9.90;82.50;;;;;;5070652;28;20052;-59
2022/01/20 00:57:24;;;;;;;2.28;1.30;;;9.90;82.50;;;;;;5071335;28;20048;-59
2022/01/20 00:59:50;;;;;;;2.55;1.75;;;9.90;82.40;;;;;;5070724;28;20052;-60
2022/01/20 01:02:16;;;;;;;2.78;1.52;;;9.90;82.40;;;;;;5071341;28;20048;-59
2022/01/20 01:04:41;;;;;;;3.08;1.52;;;9.90;82.50;;;;;;5053403;28;20396;-59
2022/01/20 01:07:26;;;;;;;1.52;1.35;;;9.90;82.50;;;;;;5070703;28;20041;-59
2022/01/20 01:09:51;;;;;;;3.20;1.80;;;9.90;82.40;;;;;;5050581;28;20073;-59
2022/01/20 01:12:27;;;;;;;3.03;1.65;;;9.90;82.40;;;;;;5051468;28;20091;-59
2022/01/20 01:14:54;;;;;;;1.95;1.45;;;9.90;82.40;;;;;;5050833;28;20084;-59
2022/01/20 01:20:13;;;;;;;1.88;1.48;;;9.90;82.40;;;;;;5068137;28;20135;-61
2022/01/20 01:22:34;;;;;;;3.03;1.58;;;9.90;82.40;;;;;;5070057;28;20058;-60
2022/01/20 01:25:01;;;;;;;1.85;1.58;;;9.90;82.40;;;;;;5070661;28;20048;-59
2022/01/20 01:27:32;;;;;;;2.90;1.50;;;9.90;82.40;;;;;;5070963;28;20040;-59
2022/01/20 01:35:06;;;;;;;3.00;1.30;;;9.90;82.70;;;;;;5062900;28;20037;-59
2022/01/20 01:39:58;;;;;;;2.55;1.48;;;9.90;82.40;;;;;;5059308;28;20044;-59
2022/01/20 01:42:31;;;;;;;2.42;1.23;;;9.90;82.30;;;;;;5070797;28;20041;-59
2022/01/20 01:45:10;;;;;;;2.10;1.55;;;9.90;82.40;;;;;;5070131;28;20090;-59
2022/01/20 01:47:35;;;;;;;1.92;1.20;;;9.90;82.30;;;;;;5070744;28;20045;-59
2022/01/20 01:50:01;;;;;;;1.77;1.23;;;9.90;82.40;;;;;;5069862;28;20534;-61
2022/01/20 01:52:27;;;;;;;3.05;1.38;;;9.90;82.40;;;;;;5071617;28;20553;-59
2022/01/20 01:54:52;;;;;;;1.45;1.25;;;9.90;82.30;;;;;;5073955;28;20044;-59
2022/01/20 01:57:18;;;;;;;1.58;1.35;;;9.90;82.30;;;;;;5074282;28;20063;-60
2022/01/20 01:59:44;;;;;;;2.70;1.40;;;9.90;82.40;;;;;;5073944;28;20048;-61
2022/01/20 02:02:10;;;;;;;2.33;1.30;;;9.90;82.30;;;;;;5073444;28;20049;-59
2022/01/20 02:04:35;;;;;;;2.13;1.38;;;9.90;82.30;;;;;;5074508;28;20048;-60
2022/01/20 02:07:26;;;;;;;1.92;1.25;;;9.90;82.30;;;;;;5073534;28;20044;-59
2022/01/20 02:18:37;;;;;;;2.33;1.27;;;9.80;82.40;;;;;;4953691;29;20492;-59
2022/01/20 02:21:05;;;;;;;2.90;1.42;;;9.90;82.40;;;;;;4952444;29;20066;-61
2022/01/20 02:23:31;;;;;;;2.53;1.40;;;9.90;82.40;;;;;;4938567;29;20067;-60
2022/01/20 02:25:57;;;;;;;2.90;1.33;;;9.90;82.40;;;;;;4933953;29;20048;-59
2022/01/20 02:28:22;;;;;;;1.77;1.30;;;9.90;82.30;;;;;;4934422;29;20106;-60
2022/01/20 02:30:48;;;;;;;2.25;1.20;;;9.90;82.30;;;;;;4934067;29;20131;-59
2022/01/20 02:33:17;;;;;;;2.78;1.20;;;9.90;82.30;;;;;;4941245;29;20127;-60
2022/01/20 02:35:46;;;;;;;1.63;1.45;;;9.90;82.30;;;;;;4953113;29;20074;-60
2022/01/20 02:38:18;;;;;;;1.77;1.20;;;9.90;82.30;;;;;;4953189;29;20055;-59
2022/01/20 02:46:06;;;;;;;3.08;1.35;;;9.90;82.30;;;;;;4949139;28;20050;-60
2022/01/20 02:48:33;;;;;;;2.15;1.55;;;9.90;82.30;;;;;;4972413;28;20065;-60
2022/01/20 02:50:58;;;;;;;3.30;1.60;;;9.90;82.30;;;;;;4972043;28;20561;-59
2022/01/20 02:53:24;;;;;;;4.55;1.65;;;9.90;82.20;;;;;;4972246;28;20047;-61
2022/01/20 02:55:51;;;;;;;3.30;1.23;;;9.90;82.20;;;;;;5055980;28;20052;-60
2022/01/20 02:58:17;;;;;;;2.78;1.60;;;9.90;82.30;;;;;;5073323;28;20040;-59
2022/01/20 03:00:43;;;;;;;3.70;1.45;;;9.90;82.30;;;;;;5072559;28;20509;-59
2022/01/20 03:03:09;;;;;;;2.75;1.45;;;9.80;82.20;;;;;;5072302;28;20531;-59
2022/01/20 03:05:35;;;;;;;2.38;1.40;;;9.90;82.20;;;;;;5072519;28;20044;-60
2022/01/20 03:08:00;;;;;;;3.88;1.50;;;9.90;82.20;;;;;;5072570;28;20051;-59
2022/01/20 03:10:29;;;;;;;2.35;1.25;;;9.90;82.20;;;;;;5073173;28;20048;-60
2022/01/20 03:12:56;;;;;;;1.65;1.10;;;9.90;82.20;;;;;;5072597;28;20036;-61
2022/01/20 03:15:23;;;;;;;3.25;1.38;;;9.90;82.20;;;;;;5072215;28;20519;-61
2022/01/20 03:17:49;;;;;;;2.63;1.25;;;9.90;82.20;;;;;;5072525;28;20075;-60
2022/01/20 03:20:14;;;;;;;1.88;1.10;;;10.00;82.20;;;;;;5072920;28;20051;-59
2022/01/20 03:22:40;;;;;;;2.63;1.40;;;9.80;82.10;;;;;;5072542;28;20048;-59
2022/01/20 03:25:07;;;;;;;2.08;1.15;;;9.90;82.20;;;;;;5072534;28;20048;-59
2022/01/20 03:27:33;;;;;;;1.90;1.40;;;9.90;82.20;;;;;;5072004;28;20120;-59
2022/01/20 03:29:59;;;;;;;1.70;0.85;;;9.90;82.20;;;;;;5071929;28;20463;-60
2022/01/20 03:32:24;;;;;;;2.38;1.25;;;10.00;82.20;;;;;;5072103;28;20041;-59
2022/01/20 03:34:50;;;;;;;3.50;1.20;;;9.90;82.10;;;;;;5072257;28;20128;-60
2022/01/20 03:37:16;;;;;;;2.33;1.17;;;9.90;82.70;;;;;;5072251;28;20448;-60
2022/01/20 03:39:42;;;;;;;4.10;1.50;;;9.90;82.10;;;;;;5072374;28;20391;-59
2022/01/20 03:42:08;;;;;;;3.17;1.33;;;9.90;82.00;;;;;;5071793;28;20124;-60
2022/01/20 03:44:33;;;;;;;3.17;1.10;;;9.90;82.00;;;;;;5072135;28;20036;-59
2022/01/20 03:47:02;;;;;;;2.78;1.30;;;9.90;82.00;;;;;;5071286;28;20123;-59
2022/01/20 03:49:37;;;;;;;2.78;1.00;;;9.90;82.00;;;;;;5072416;28;20182;-59
2022/01/20 03:52:04;;;;;;;2.80;1.30;;;9.90;82.00;;;;;;5071775;28;20484;-59
2022/01/20 03:54:30;;;;;;;2.30;1.10;;;9.90;81.90;;;;;;5071836;28;20083;-60
2022/01/20 03:56:56;;;;;;;2.92;1.33;;;9.90;81.90;;;;;;5053550;28;20181;-59
2022/01/20 03:59:21;;;;;;;3.58;1.52;;;9.90;82.00;;;;;;5071523;28;20140;-60
2022/01/20 04:01:47;;;;;;;3.67;1.42;;;9.90;81.90;;;;;;5072138;28;20048;-59
2022/01/20 04:04:13;;;;;;;3.58;1.30;;;9.90;81.90;;;;;;5072084;28;20036;-59
2022/01/20 04:06:38;;;;;;;3.13;1.55;;;9.90;81.80;;;;;;5072162;28;20041;-60
2022/01/20 04:09:04;;;;;;;3.55;1.30;;;9.90;81.90;;;;;;5070700;28;20105;-59
2022/01/20 04:11:31;;;;;;;3.38;1.23;;;9.90;81.80;;;;;;5071798;28;20465;-59
2022/01/20 04:13:57;;;;;;;3.05;1.17;;;9.90;81.80;;;;;;5068774;28;20048;-60
2022/01/20 04:16:35;;;;;;;2.75;1.35;;;9.90;81.80;;;;;;5056287;28;20106;-60
2022/01/20 04:19:07;;;;;;;1.88;0.93;;;9.90;81.80;;;;;;5034901;28;20048;-60
2022/01/20 04:21:33;;;;;;;1.85;1.05;;;9.80;81.80;;;;;;5051911;28;20055;-60
2022/01/20 04:24:00;;;;;;;3.90;1.00;;;9.90;81.80;;;;;;5050886;28;20055;-59
2022/01/20 04:26:26;;;;;;;2.17;1.17;;;9.90;81.80;;;;;;5051367;28;20044;-59
2022/01/20 04:28:58;;;;;;;1.90;1.35;;;9.90;81.80;;;;;;5050926;28;20060;-59
2022/01/20 04:31:25;;;;;;;4.38;1.17;;;9.90;81.80;;;;;;5068770;28;20125;-59
2022/01/20 04:33:52;;;;;;;1.48;0.90;;;9.90;81.80;;;;;;5071534;28;20165;-60
2022/01/20 04:36:18;;;;;;;4.10;1.13;;;9.80;81.70;;;;;;5071722;28;20120;-59
2022/01/20 04:38:43;;;;;;;2.97;1.05;;;9.90;81.80;;;;;;5071807;28;20044;-59
2022/01/20 04:41:09;;;;;;;2.92;1.20;;;9.90;81.80;;;;;;5070001;28;20098;-59
2022/01/20 04:43:35;;;;;;;3.42;1.10;;;9.90;81.80;;;;;;5053565;28;20113;-59
2022/01/20 04:46:12;;;;;;;2.92;1.13;;;9.90;81.80;;;;;;5053299;28;20053;-60
2022/01/20 04:59:35;;;;;;;2.70;0.98;;;9.90;81.70;;;;;;5071301;28;20048;-60
2022/01/20 05:02:00;;;;;;;2.70;1.15;;;9.80;81.70;;;;;;5070692;28;20067;-60
2022/01/20 05:04:26;;;;;;;3.30;1.25;;;9.90;81.70;;;;;;5071314;28;20374;-60
2022/01/20 05:06:57;;;;;;;2.05;0.90;;;9.90;81.70;;;;;;5070651;28;20044;-60
2022/01/20 05:09:23;;;;;;;2.25;1.00;;;9.90;81.70;;;;;;5071428;28;20048;-60
2022/01/20 05:11:58;;;;;;;3.22;1.35;;;9.90;81.70;;;;;;5070693;28;20160;-59
2022/01/20 05:14:24;;;;;;;3.38;1.02;;;9.80;81.70;;;;;;5070986;28;20090;-60
2022/01/20 05:16:51;;;;;;;1.27;0.90;;;9.80;81.60;;;;;;5070721;28;20045;-60
2022/01/20 05:19:17;;;;;;;2.17;1.00;;;9.80;81.60;;;;;;5071315;28;20098;-60
2022/01/20 05:21:43;;;;;;;1.42;1.00;;;9.80;81.60;;;;;;5070973;28;20091;-60
2022/01/20 05:24:08;;;;;;;2.40;0.95;;;9.90;81.80;;;;;;5070151;28;20048;-60
2022/01/20 05:26:34;;;;;;;1.85;0.73;;;9.90;81.70;;;;;;5072443;28;20041;-60
2022/01/20 05:28:59;;;;;;;1.63;0.80;;;9.90;81.80;;;;;;5074295;28;20050;-59
2022/01/20 05:31:25;;;;;;;2.30;1.00;;;9.90;81.70;;;;;;5074662;28;20374;-60
2022/01/20 05:33:51;;;;;;;2.15;1.30;;;9.80;81.70;;;;;;5074272;28;20068;-59
2022/01/20 05:36:16;;;;;;;3.33;1.13;;;9.90;81.70;;;;;;5074470;28;20113;-60
2022/01/20 05:38:42;;;;;;;2.70;1.10;;;9.90;81.70;;;;;;5074876;28;20041;-59
2022/01/20 05:41:08;;;;;;;3.50;1.40;;;9.80;81.70;;;;;;5073984;28;20365;-59
2022/01/20 05:43:33;;;;;;;3.17;1.10;;;9.90;81.70;;;;;;5074852;28;20040;-60
2022/01/20 05:46:01;;;;;;;2.95;1.10;;;9.80;81.70;;;;;;5073862;28;20052;-60
2022/01/20 05:48:35;;;;;;;2.38;1.00;;;9.90;81.70;;;;;;5074533;28;20047;-59
2022/01/20 05:51:05;;;;;;;3.92;1.10;;;9.90;81.80;;;;;;5073740;28;20106;-60
2022/01/20 05:53:31;;;;;;;2.17;0.95;;;9.90;81.70;;;;;;5074471;28;20048;-60
2022/01/20 05:55:57;;;;;;;2.22;1.00;;;9.90;81.70;;;;;;5073931;28;20052;-59
2022/01/20 05:58:24;;;;;;;3.30;1.10;;;9.80;81.60;;;;;;5074371;28;20047;-60
2022/01/20 06:00:50;;;;;;;1.73;1.00;;;9.80;82.20;;;;;;5073648;28;20060;-60
2022/01/20 06:06:00;;;;;;;3.33;1.58;;;9.80;81.60;;;;;;5073177;28;20040;-62
2022/01/20 06:08:26;;;;;;;3.17;1.13;;;9.80;81.70;;;;;;5073903;28;20052;-59
2022/01/20 06:10:52;;;;;;;2.05;1.20;;;9.80;81.60;;;;;;5073550;28;20397;-60
2022/01/20 06:13:17;;;;;;;2.58;1.13;;;9.90;81.70;;;;;;5074291;28;20393;-59
2022/01/20 06:15:43;;;;;;;2.50;1.05;;;9.80;81.60;;;;;;5074080;28;20045;-59
2022/01/20 06:18:09;;;;;;;2.60;1.20;;;9.80;81.60;;;;;;5072726;28;20083;-59
2022/01/20 06:20:36;;;;;;;1.50;1.00;;;9.80;81.60;;;;;;5074311;28;20145;-60
2022/01/20 06:23:05;;;;;;;4.13;1.17;;;9.90;81.70;;;;;;5073804;28;20087;-60
2022/01/20 06:25:31;;;;;;;2.38;1.10;;;9.80;81.60;;;;;;5074102;28;20052;-59
2022/01/20 06:27:56;;;;;;;2.22;1.10;;;9.80;81.60;;;;;;5054770;28;20048;-59
2022/01/20 06:30:24;;;;;;;3.05;1.23;;;9.90;81.60;;;;;;5073799;28;20047;-60
2022/01/20 06:32:50;;;;;;;4.10;1.25;;;9.90;81.70;;;;;;5073473;28;20080;-60
2022/01/20 06:35:15;;;;;;;2.92;1.58;;;9.80;81.60;;;;;;5073906;28;20075;-60
2022/01/20 06:37:41;;;;;;;2.35;0.95;;;9.90;81.60;;;;;;5072865;28;20033;-59
2022/01/20 06:40:07;;;;;;;1.25;0.80;;;9.80;81.50;;;;;;5073159;28;20053;-60
2022/01/20 06:42:33;;;;;;;2.53;1.05;;;9.80;81.60;;;;;;5073424;28;20126;-59
2022/01/20 06:44:59;;;;;;;3.15;1.52;;;9.90;81.60;;;;;;5055325;28;20139;-59
2022/01/20 06:47:25;;;;;;;2.83;1.17;;;9.90;81.60;;;;;;5073568;28;20040;-60
2022/01/20 06:49:50;;;;;;;1.67;1.00;;;9.80;81.60;;;;;;5072402;28;20094;-60
2022/01/20 06:52:16;;;;;;;2.75;1.13;;;9.80;81.60;;;;;;5071272;28;20036;-60
2022/01/20 06:54:42;;;;;;;2.15;1.00;;;9.80;81.60;;;;;;5070522;28;20128;-59
2022/01/20 06:57:07;;;;;;;2.40;0.90;;;10.00;81.70;;;;;;5072965;28;20044;-59
2022/01/20 06:59:33;;;;;;;2.63;1.10;;;9.80;81.60;;;;;;5072220;28;20127;-61
2022/01/20 07:01:58;;;;;;;1.85;0.98;;;9.80;82.20;;;;;;5072532;28;20052;-61
2022/01/20 07:04:26;;;;;;;2.58;1.27;;;9.90;81.60;;;;;;5073010;28;20044;-59
2022/01/20 07:06:52;;;;;;;1.90;1.10;;;9.80;81.60;;;;;;5072661;28;20033;-60
2022/01/20 07:09:18;;;;;;;2.83;1.30;;;9.80;81.60;;;;;;5072983;28;20051;-59
2022/01/20 07:11:43;;;;;;;1.45;1.00;;;9.90;81.60;;;;;;5072713;28;20044;-60
2022/01/20 07:14:09;;;;;;;1.63;1.00;;;9.80;81.60;;;;;;5072252;28;20082;-60
2022/01/20 07:16:35;;;;;;;2.10;1.13;;;9.80;81.60;;;;;;5072907;28;20609;-60
2022/01/20 07:19:01;;;;;;;1.58;1.10;;;9.90;81.60;;;;;;5072456;28;20123;-59
2022/01/20 07:21:27;;;;;;;3.55;1.10;;;9.80;81.60;;;;;;5060724;28;20052;-60
2022/01/20 07:23:53;;;;;;;2.13;1.08;;;9.80;81.60;;;;;;5052089;28;20049;-59
2022/01/20 07:26:19;;;;;;;1.63;1.10;;;9.80;81.50;;;;;;5051941;28;20499;-59
2022/01/20 07:28:45;;;;;;;2.55;0.90;;;9.90;81.60;;;;;;5051807;28;20045;-59
2022/01/20 07:31:10;;;;;;;3.78;1.75;;;9.80;81.60;;;;;;5056130;28;20397;-59
2022/01/20 07:33:36;;;;;;;1.40;0.85;;;9.80;81.50;;;;;;5071878;28;20048;-60
2022/01/20 07:36:03;;;;;;;3.20;1.30;;;9.80;81.50;;;;;;5071822;28;20072;-59
2022/01/20 07:38:30;;;;;;;2.63;0.93;;;9.80;81.50;;;;;;5072410;28;20173;-60
2022/01/20 07:40:56;;;;;;;3.20;1.60;;;9.80;81.50;;;;;;5071701;28;20097;-59
2022/01/20 07:43:21;;;;;;;1.73;0.85;;;9.80;81.50;;;;;;5071827;28;20040;-58
2022/01/20 07:45:47;;;;;;;2.65;1.02;;;9.90;81.60;;;;;;5072086;28;20084;-59
2022/01/20 07:48:13;;;;;;;2.30;1.10;;;9.80;81.60;;;;;;5070327;28;20488;-59
2022/01/20 07:50:38;;;;;;;2.17;0.95;;;9.90;81.60;;;;;;5070514;28;20427;-59
2022/01/20 07:53:04;;;;;;;2.10;0.90;;;9.70;81.40;;;;;;5071558;28;20040;-58
2022/01/20 07:55:30;;;;;;;1.52;0.90;;;9.80;81.60;;;;;;5072370;28;20043;-59
2022/01/20 07:57:56;;;;;;;2.20;1.00;;;9.80;81.50;;;;;;5069719;28;20480;-59
2022/01/20 08:00:22;;;;;;;2.10;0.85;;;9.80;81.50;;;;;;5071641;28;20052;-59
2022/01/20 08:02:48;;;;;;;1.85;0.80;;;9.80;81.50;;;;;;5068994;28;20053;-59
2022/01/20 08:05:14;;;;;;;2.10;1.00;;;9.80;81.50;;;;;;5052358;28;20060;-60
2022/01/20 08:07:40;;;;;;;2.90;1.20;;;9.80;81.50;;;;;;5071837;28;20037;-59
2022/01/20 08:10:07;;;;;;;2.28;1.02;;;9.80;81.60;;;;;;5070430;28;20079;-59
2022/01/20 08:12:33;;;;;;;1.85;1.02;;;9.80;81.50;;;;;;5071282;28;20044;-59
2022/01/20 08:14:59;;;;;;;4.63;1.38;;;9.80;81.60;;;;;;5071268;28;20085;-63
2022/01/20 08:17:25;;;;;;;1.30;0.90;;;9.80;81.50;;;;;;5076658;28;20113;-63
2022/01/20 08:19:51;;;;;;;3.60;1.55;;;9.80;81.50;;;;;;5081055;28;20044;-64
2022/01/20 08:22:17;;;;;;;1.92;1.15;;;9.80;81.60;;;;;;5080541;28;20142;-64
2022/01/20 08:24:42;;;;;;;2.53;1.13;;;9.70;81.40;;;;;;5080154;28;20408;-63
2022/01/20 08:27:11;;;;;;;1.85;1.17;;;9.80;81.50;;;;;;5081794;28;20036;-63
2022/01/20 08:29:37;;;;;;;2.00;1.20;;;9.80;81.50;;;;;;5079236;28;20044;-60
2022/01/20 08:32:04;;;;;;;2.95;1.20;;;9.80;81.50;;;;;;5078590;28;20040;-62
2022/01/20 08:34:30;;;;;;;2.67;1.10;;;9.80;81.50;;;;;;5079063;28;20047;-61
2022/01/20 08:36:56;;;;;;;3.20;1.00;;;9.90;81.50;;;;;;5075104;28;20475;-59
2022/01/20 08:42:02;;;;;;;1.27;0.88;;;9.80;81.50;;;;;;5076879;28;20048;-62
2022/01/20 08:44:28;;;;;;;1.60;0.90;;;9.80;81.50;;;;;;5077370;28;20048;-61
2022/01/20 08:46:54;;;;;;;3.40;1.63;;;9.80;81.50;;;;;;5075746;28;20063;-61
2022/01/20 08:49:20;;;;;;;2.00;0.93;;;9.80;81.50;;;;;;5075680;28;20040;-64
2022/01/20 08:51:47;;;;;;;2.83;0.88;;;9.70;82.10;;;;;;5069496;28;20052;-60
2022/01/20 08:54:13;;;;;;;1.73;0.82;;;9.80;81.50;;;;;;5066304;28;20048;-61
2022/01/20 08:56:40;;;;;;;2.38;1.00;;;9.70;81.40;;;;;;5080006;28;20131;-60
2022/01/20 08:59:07;;;;;;;2.05;0.90;;;9.80;81.50;;;;;;5065734;28;20079;-62
2022/01/20 09:01:35;;;;;;;2.97;1.42;;;9.80;81.50;;;;;;5067566;28;20041;-62
2022/01/20 09:04:01;;;;;;;2.13;0.82;;;9.80;81.50;;;;;;5051902;28;20102;-61
2022/01/20 09:06:27;;;;;;;1.63;0.75;;;9.80;82.20;;;;;;5070690;28;20036;-59
2022/01/20 09:08:53;;;;;;;1.60;0.95;;;9.60;81.40;;;;;;5069599;28;20051;-62
2022/01/20 09:11:50;;;;;;;1.70;0.82;;;9.80;81.50;;;;;;5052531;28;20049;-64
2022/01/20 09:16:50;;;;;;;2.78;0.85;;;9.70;81.40;;;;;;4968702;28;19932;-62
2022/01/20 09:19:17;;;;;;;1.45;0.98;;;9.70;81.50;;;;;;4969306;28;20070;-63
2022/01/20 09:21:44;;;;;;;1.98;1.10;;;9.70;81.50;;;;;;4967939;28;20066;-61
2022/01/20 09:24:10;;;;;;;1.30;0.98;;;9.60;81.50;;;;;;4968443;28;20085;-62
2022/01/20 09:26:35;;;;;;;2.38;0.95;;;9.80;81.60;;;;;;4968946;28;20086;-64
2022/01/20 09:29:01;;;;;;;1.63;0.90;;;9.70;81.50;;;;;;4967117;28;20077;-60
2022/01/20 09:31:30;;;;;;;3.60;1.02;;;9.80;81.60;;;;;;4951965;28;20054;-62
2022/01/20 09:33:55;;;;;;;1.80;0.80;;;9.70;81.50;;;;;;4949326;28;20057;-61
2022/01/20 09:36:23;;;;;;;2.40;1.20;;;9.70;81.50;;;;;;4972830;28;20465;-59
2022/01/20 09:38:49;;;;;;;1.90;0.90;;;9.70;81.50;;;;;;4972559;28;20042;-61
2022/01/20 09:41:15;;;;;;;2.92;0.88;;;9.70;81.50;;;;;;4971165;28;20055;-63
2022/01/20 09:43:40;;;;;;;1.95;0.98;;;9.70;81.50;;;;;;4980512;28;20049;-61
2022/01/20 09:46:06;;;;;;;2.53;0.88;;;9.70;81.50;;;;;;4980380;28;20089;-59
2022/01/20 09:48:32;;;;;;;2.70;0.90;;;9.70;81.50;;;;;;4978154;28;20070;-60
2022/01/20 09:51:03;;;;;;;3.92;1.67;;;9.80;81.60;;;;;;4982780;28;20096;-59
2022/01/20 09:53:30;;;;;;;2.78;1.15;;;9.70;81.50;;;;;;4995445;28;20118;-59
2022/01/20 09:55:57;;;;;;;3.72;1.23;;;9.70;81.50;;;;;;5081858;28;20036;-60
2022/01/20 09:58:23;;;;;;;2.67;0.80;;;9.70;81.50;;;;;;5083664;28;20040;-59
2022/01/20 10:00:51;;;;;;;1.48;0.90;;;9.80;81.50;;;;;;5073997;28;20060;-59
2022/01/20 10:03:20;;;;;;;1.45;0.90;;;9.70;81.50;;;;;;5075507;28;20442;-60
2022/01/20 10:05:51;;;;;;;2.78;0.90;;;9.80;82.20;;;;;;5075040;28;20079;-59
2022/01/20 10:08:23;;;;;;;1.60;0.93;;;9.80;81.50;;;;;;5071708;28;20040;-60
2022/01/20 10:11:00;;;;;;;1.30;0.88;;;9.70;81.50;;;;;;5074210;28;20415;-61
2022/01/20 10:13:32;;;;;;;2.00;1.10;;;9.70;81.40;;;;;;5072730;28;20129;-61
2022/01/20 10:16:00;;;;;;;6.18;2.17;;;9.70;81.50;;;;;;5073953;28;20036;-62
2022/01/20 10:18:26;;;;;;;6.50;2.10;;;9.70;79.20;;;;;;5055343;28;20049;-61
2022/01/20 10:20:55;;;;;;;7.72;1.88;;;9.40;76.20;;;;;;5073093;28;20070;-62
2022/01/20 10:23:33;;;;;;;8.10;2.20;;;9.20;77.20;;;;;;5073693;28;20123;-61
2022/01/20 10:26:08;;;;;;;5.10;1.75;;;9.20;77.70;;;;;;5073492;28;20102;-61
2022/01/20 10:28:53;;;;;;;7.40;1.80;;;9.20;78.10;;;;;;5073360;28;20041;-61
2022/01/20 10:31:30;;;;;;;3.70;1.80;;;9.20;78.30;;;;;;5073440;28;20055;-62
2022/01/20 10:33:55;;;;;;;4.93;1.95;;;9.30;78.60;;;;;;5072692;28;20090;-61
2022/01/20 10:36:22;;;;;;;5.40;1.63;;;9.30;78.80;;;;;;5073744;28;20040;-62
2022/01/20 10:38:56;;;;;;;6.10;1.30;;;9.30;79.00;;;;;;5072739;28;20527;-61
2022/01/20 10:41:40;;;;;;;6.15;1.55;;;9.40;79.20;;;;;;5073787;28;20047;-61
2022/01/20 10:44:09;;;;;;;4.68;1.48;;;9.40;79.30;;;;;;5073362;28;20052;-60
2022/01/20 10:46:42;;;;;;;7.57;2.40;;;9.30;79.40;;;;;;5072510;28;20085;-62
2022/01/20 10:49:08;;;;;;;6.10;1.83;;;9.30;75.90;;;;;;5072319;28;20496;-60
2022/01/20 10:51:34;;;;;;;6.28;1.67;;;9.10;76.60;;;;;;5072450;28;20127;-60
2022/01/20 10:54:06;;;;;;;7.80;1.88;;;9.10;77.10;;;;;;5073169;28;20033;-60
2022/01/20 10:56:57;;;;;;;4.53;1.77;;;9.10;77.60;;;;;;5072644;28;20380;-60
2022/01/20 10:59:23;;;;;;;5.93;2.75;;;9.10;77.90;;;;;;5072397;28;20098;-60
2022/01/20 11:01:58;;;;;;;3.47;1.50;;;9.10;78.20;;;;;;5072439;28;20487;-59
2022/01/20 11:04:24;;;;;;;5.20;1.37;;;9.10;78.40;;;;;;5072969;28;20139;-58
2022/01/20 11:06:54;;;;;;;7.20;1.77;;;9.10;78.60;;;;;;5072108;28;20821;-60
2022/01/20 11:09:21;;;;;;;6.32;2.10;;;9.20;78.80;;;;;;5072634;28;20059;-59
2022/01/20 11:11:48;;;;;;;4.25;1.58;;;9.10;78.90;;;;;;5072286;28;20044;-58
2022/01/20 11:14:15;;;;;;;4.45;1.85;;;9.10;79.00;;;;;;5072699;28;20045;-59
2022/01/20 11:16:41;;;;;;;5.13;1.73;;;9.20;79.20;;;;;;5074730;28;20040;-58
2022/01/20 11:19:19;;;;;;;3.97;1.75;;;9.20;79.30;;;;;;5080049;28;20036;-58
2022/01/20 11:21:45;;;;;;;5.18;1.52;;;9.20;79.40;;;;;;5073528;28;20051;-58
2022/01/20 11:24:18;;;;;;;4.60;1.90;;;9.20;79.50;;;;;;5061699;28;20051;-58
2022/01/20 11:26:49;;;;;;;4.82;1.80;;;9.20;79.60;;;;;;5063119;28;20503;-58
2022/01/20 11:29:16;;;;;;;3.83;1.50;;;9.20;79.60;;;;;;5081740;28;20995;-58
2022/01/20 11:31:42;;;;;;;6.45;1.73;;;9.30;79.80;;;;;;5077510;28;20043;-59
2022/01/20 11:34:19;;;;;;;3.45;1.38;;;9.20;79.70;;;;;;5081561;28;20040;-58
2022/01/20 11:36:44;;;;;;;4.30;1.40;;;9.30;79.90;;;;;;5077906;28;20036;-59
2022/01/20 11:39:10;;;;;;;6.20;1.75;;;9.30;79.90;;;;;;5081004;28;20043;-59
2022/01/20 11:41:52;;;;;;;7.30;1.50;;;9.30;80.00;;;;;;5081729;28;20101;-59
2022/01/20 11:44:26;;;;;;;3.50;1.38;;;9.30;80.00;;;;;;5079015;28;20037;-59
2022/01/20 11:46:53;;;;;;;5.50;2.28;;;9.30;80.00;;;;;;5080276;28;20059;-58
2022/01/20 11:49:21;;;;;;;2.63;1.10;;;9.30;80.10;;;;;;5081805;28;20040;-59
2022/01/20 11:51:57;;;;;;;2.67;1.23;;;9.30;80.10;;;;;;5080136;28;20044;-58
2022/01/20 11:54:29;;;;;;;3.22;1.45;;;9.30;80.10;;;;;;5077573;28;20060;-58
2022/01/20 11:57:30;;;;;;;3.22;1.17;;;9.30;80.10;;;;;;5079779;28;20046;-59
2022/01/20 12:00:02;;;;;;;3.75;1.60;;;9.30;80.20;;;;;;5077997;28;20557;-58
2022/01/20 12:02:35;;;;;;;4.80;1.67;;;9.40;80.30;;;;;;5079285;28;20063;-59
2022/01/20 12:05:30;;;;;;;2.70;1.30;;;9.40;80.30;;;;;;5080123;28;20051;-59
2022/01/20 12:08:17;;;;;;;3.22;1.65;;;9.40;80.30;;;;;;5080809;28;20102;-56
2022/01/20 12:10:59;;;;;;;3.53;1.38;;;9.40;80.40;;;;;;5073846;28;20192;-59
2022/01/20 12:13:25;;;;;;;4.93;1.50;;;9.40;80.40;;;;;;5071331;28;20047;-56
2022/01/20 12:15:57;;;;;;;2.50;1.10;;;9.40;81.00;;;;;;5070941;28;20377;-56
2022/01/20 12:18:23;;;;;;;4.07;1.23;;;9.40;80.40;;;;;;5070913;28;20050;-58
2022/01/20 12:20:49;;;;;;;7.78;1.55;;;9.40;80.40;;;;;;5070672;28;20127;-57
2022/01/20 12:23:14;;;;;;;3.20;1.55;;;9.40;80.40;;;;;;5070928;28;20112;-61
2022/01/20 12:25:40;;;;;;;4.50;1.48;;;9.40;80.40;;;;;;5070968;28;20406;-59
2022/01/20 12:28:11;;;;;;;4.03;1.67;;;9.40;80.40;;;;;;5071548;28;20106;-55
2022/01/20 12:30:47;;;;;;;3.90;1.35;;;9.50;80.50;;;;;;5071166;28;20054;-57
2022/01/20 12:33:15;;;;;;;4.38;1.40;;;9.50;80.50;;;;;;5071489;28;20552;-62
2022/01/20 12:35:49;;;;;;;2.20;1.00;;;9.50;80.50;;;;;;5069818;28;20072;-59
2022/01/20 12:38:28;;;;;;;6.22;1.85;;;9.50;80.50;;;;;;5071634;28;20395;-60
2022/01/20 12:41:02;;;;;;;6.20;1.98;;;9.50;73.40;;;;;;5071140;28;20455;-60
2022/01/20 12:43:47;;;;;;;7.43;2.40;;;9.30;78.20;;;;;;5071417;28;20041;-61
2022/01/20 12:46:22;;;;;;;7.80;2.93;;;9.20;78.50;;;;;;5076134;28;20127;-61
2022/01/20 12:48:52;;;;;;;10.93;3.05;;;9.20;78.80;;;;;;5086971;28;20286;-61
2022/01/20 12:51:18;;;;;;;6.70;2.13;;;9.30;79.00;;;;;;5066771;28;20051;-60
2022/01/20 12:53:55;;;;;;;7.05;2.35;;;9.20;79.00;;;;;;5063106;28;20044;-60
2022/01/20 12:56:30;;;;;;;5.68;3.08;;;9.30;79.20;;;;;;5059516;28;20040;-61
2022/01/20 12:58:57;;;;;;;7.55;2.28;;;9.40;79.30;;;;;;5069093;28;20048;-60
2022/01/20 13:01:25;;;;;;;6.82;1.70;;;9.30;79.30;;;;;;5046136;28;20095;-59
2022/01/20 13:03:51;;;;;;;6.97;2.05;;;9.30;79.40;;;;;;5038999;28;20072;-60
2022/01/20 13:06:26;;;;;;;8.68;2.10;;;9.40;79.50;;;;;;5048856;28;20041;-61
2022/01/20 13:09:10;;;;;;;6.85;2.05;;;9.40;79.50;;;;;;5050723;28;20053;-60
2022/01/20 13:11:53;;;;;;;3.75;1.92;;;9.40;79.60;;;;;;5034778;28;20374;-61
2022/01/20 13:14:19;;;;;;;8.27;1.92;;;9.40;79.60;;;;;;5038612;28;20045;-60
2022/01/20 13:16:54;;;;;;;8.60;2.33;;;9.40;79.70;;;;;;5043333;28;20045;-62
2022/01/20 13:19:33;;;;;;;3.55;1.67;;;9.50;79.70;;;;;;5030166;28;20037;-60
2022/01/20 13:22:00;;;;;;;2.97;1.48;;;9.50;79.80;;;;;;5039981;28;20053;-60
2022/01/20 13:24:29;;;;;;;6.82;1.60;;;9.50;79.80;;;;;;5039822;28;20049;-60
2022/01/20 13:26:56;;;;;;;3.95;1.40;;;9.50;79.80;;;;;;5049345;28;20070;-60
2022/01/20 13:29:23;;;;;;;5.22;1.92;;;9.40;79.80;;;;;;5050054;28;20127;-60
2022/01/20 13:31:50;;;;;;;6.15;1.58;;;9.50;79.80;;;;;;5049872;28;20049;-60
2022/01/20 13:34:18;;;;;;;4.53;2.03;;;9.50;79.80;;;;;;5034247;28;20402;-60
2022/01/20 13:36:48;;;;;;;4.32;1.52;;;9.50;79.80;;;;;;5033676;28;20068;-60
2022/01/20 13:39:26;;;;;;;4.22;1.58;;;9.50;79.90;;;;;;5049130;28;20048;-60
2022/01/20 13:42:02;;;;;;;5.47;1.77;;;9.50;79.90;;;;;;5050296;28;20080;-60
2022/01/20 13:47:12;;;;;;;4.38;1.45;;;9.50;80.00;;;;;;5049745;28;20049;-60
2022/01/20 13:49:52;;;;;;;5.97;1.77;;;9.50;80.00;;;;;;5052449;28;20409;-60
2022/01/20 13:52:20;;;;;;;3.72;1.42;;;9.50;80.00;;;;;;5053492;28;20060;-60
2022/01/20 13:54:48;;;;;;;5.30;1.95;;;9.50;80.10;;;;;;5052880;28;20130;-60
2022/01/20 13:57:14;;;;;;;3.10;1.50;;;9.60;80.10;;;;;;5049994;28;20044;-60
2022/01/20 13:59:52;;;;;;;4.10;1.50;;;9.50;80.10;;;;;;5052965;28;20048;-61
2022/01/20 14:02:18;;;;;;;5.28;1.80;;;9.50;80.10;;;;;;5065097;28;20057;-60
2022/01/20 14:04:44;;;;;;;6.32;1.63;;;9.50;80.10;;;;;;5043684;28;20137;-60
2022/01/20 14:07:10;;;;;;;3.47;1.20;;;9.50;80.10;;;;;;5063001;28;20139;-60
2022/01/20 14:09:35;;;;;;;4.90;1.63;;;9.50;80.10;;;;;;5072732;28;20033;-60
2022/01/20 14:12:01;;;;;;;4.18;1.35;;;9.50;80.10;;;;;;5072505;28;20072;-61
2022/01/20 14:14:26;;;;;;;11.90;3.33;;;9.60;80.20;;;;;;5073582;28;20127;-56
2022/01/20 14:16:53;;;;;;;7.10;2.28;;;9.40;77.70;;;;;;5068533;28;20044;-57
2022/01/20 14:19:23;;;;;;;8.82;2.20;;;9.30;78.20;;;;;;5073973;28;20047;-57